Time;durP1;ratioP1;P1;durP2;ratioP2;P2;SDS_P1;SDS_P2;PMS_P1;PMS_P2;Temp;Humidity;BMP_temperature;BMP_pressure;BME280_temperature;BME280_humidity;BME280_pressure;Samples;Min_cycle;Max_cycle;Signal;HPM_P1;HPM_P2
2022/01/19 00:00:15;;;;;;;5.47;2.97;;;22.40;33.90;;;;;;5053383;28;20032;-51
2022/01/19 00:02:40;;;;;;;3.83;2.50;;;22.40;33.90;;;;;;5053292;28;20069;-53
2022/01/19 00:05:08;;;;;;;4.07;2.72;;;22.30;33.80;;;;;;5052712;28;20464;-58
2022/01/19 00:07:34;;;;;;;4.47;2.90;;;22.30;33.80;;;;;;5050951;28;20041;-56
2022/01/19 00:10:04;;;;;;;5.32;2.67;;;22.40;33.80;;;;;;5052664;28;20131;-52
2022/01/19 00:12:31;;;;;;;4.43;2.55;;;22.40;33.80;;;;;;5052699;28;20048;-52
2022/01/19 00:14:57;;;;;;;4.18;2.97;;;22.30;33.80;;;;;;5052012;28;20032;-53
2022/01/19 00:17:23;;;;;;;4.30;2.50;;;22.30;33.70;;;;;;5035185;28;20036;-52
2022/01/19 00:19:48;;;;;;;6.38;3.40;;;22.30;33.70;;;;;;5052843;28;20384;-55
2022/01/19 00:22:14;;;;;;;3.30;2.63;;;22.30;33.70;;;;;;5052545;28;20032;-57
2022/01/19 00:24:41;;;;;;;3.88;2.60;;;22.30;33.70;;;;;;5052952;28;20074;-54
2022/01/19 00:27:07;;;;;;;4.55;2.85;;;22.30;33.70;;;;;;5052401;28;20067;-53
2022/01/19 00:29:33;;;;;;;4.80;2.78;;;22.30;33.70;;;;;;5052893;28;20085;-55
2022/01/19 00:31:58;;;;;;;3.40;2.22;;;22.30;33.80;;;;;;5052445;28;20032;-53
2022/01/19 00:34:24;;;;;;;3.33;2.00;;;22.30;33.80;;;;;;5051729;28;20112;-55
2022/01/19 00:36:50;;;;;;;4.88;2.55;;;22.30;33.80;;;;;;5052825;28;20025;-58
2022/01/19 00:39:16;;;;;;;4.55;2.50;;;22.20;33.70;;;;;;5053509;28;20025;-56
2022/01/19 00:41:43;;;;;;;5.00;2.55;;;22.20;33.70;;;;;;5051819;28;20171;-52
2022/01/19 00:44:09;;;;;;;5.85;3.15;;;22.20;33.70;;;;;;5055760;28;20107;-54
2022/01/19 00:46:35;;;;;;;4.70;2.72;;;22.20;33.70;;;;;;5055224;28;20028;-57
2022/01/19 00:49:01;;;;;;;3.78;2.58;;;22.20;33.70;;;;;;5038424;28;20047;-56
2022/01/19 00:51:27;;;;;;;5.45;2.40;;;22.20;33.70;;;;;;5055689;28;20453;-57
2022/01/19 00:53:52;;;;;;;4.28;2.60;;;22.20;33.60;;;;;;5056571;28;20478;-55
2022/01/19 00:56:19;;;;;;;3.70;2.35;;;22.20;33.60;;;;;;5053989;28;20051;-53
2022/01/19 00:58:46;;;;;;;4.35;2.83;;;22.20;33.60;;;;;;5034211;28;20452;-51
2022/01/19 01:01:11;;;;;;;4.15;2.50;;;22.20;33.60;;;;;;5035728;28;20021;-54
2022/01/19 01:03:37;;;;;;;5.32;2.63;;;22.20;33.60;;;;;;5036735;28;20344;-53
2022/01/19 01:06:03;;;;;;;4.65;2.67;;;22.10;33.60;;;;;;5036402;28;20116;-57
2022/01/19 01:08:29;;;;;;;4.45;2.80;;;22.20;33.60;;;;;;5034533;28;20116;-52
2022/01/19 01:10:55;;;;;;;3.78;2.75;;;22.20;33.60;;;;;;5036015;28;20043;-53
2022/01/19 01:15:23;;;;;;;4.35;2.45;;;22.10;33.50;;;;;;5036468;28;20029;-52
2022/01/19 01:16:17;;;;;;;4.25;2.33;;;22.20;33.60;;;;;;5034138;28;20029;-53
2022/01/19 01:18:43;;;;;;;3.92;2.72;;;22.10;33.50;;;;;;5042952;28;20033;-56
2022/01/19 01:21:09;;;;;;;5.07;2.92;;;22.10;33.50;;;;;;5034740;28;20069;-52
2022/01/19 01:23:35;;;;;;;4.03;2.40;;;22.10;33.50;;;;;;5035267;28;20060;-59
2022/01/19 01:26:04;;;;;;;5.38;2.90;;;22.10;33.50;;;;;;5034785;28;20508;-52
2022/01/19 01:28:30;;;;;;;3.78;2.50;;;22.10;33.50;;;;;;5033415;28;20022;-51
2022/01/19 01:30:56;;;;;;;2.97;2.33;;;22.10;33.50;;;;;;5034549;28;20032;-51
2022/01/19 01:33:22;;;;;;;4.90;2.80;;;22.10;33.50;;;;;;5034542;28;20033;-57
2022/01/19 01:35:48;;;;;;;4.93;2.60;;;22.10;33.40;;;;;;5033915;28;20096;-52
2022/01/19 01:38:15;;;;;;;4.32;2.55;;;22.10;33.40;;;;;;5034527;28;20059;-56
2022/01/19 01:40:41;;;;;;;4.90;2.92;;;22.10;33.40;;;;;;5032276;28;20018;-52
2022/01/19 01:43:08;;;;;;;4.82;3.05;;;22.10;33.40;;;;;;5026028;28;20152;-54
2022/01/19 01:45:38;;;;;;;3.60;2.55;;;22.10;33.40;;;;;;5024967;28;20121;-54
2022/01/19 01:48:14;;;;;;;4.68;2.97;;;22.00;33.30;;;;;;5024522;28;20176;-54
2022/01/19 01:53:59;;;;;;;4.60;3.00;;;22.00;33.30;;;;;;5022266;28;20305;-55
2022/01/19 01:56:25;;;;;;;5.07;2.95;;;22.00;33.30;;;;;;5034511;28;20087;-56
2022/01/19 01:58:55;;;;;;;4.78;2.85;;;22.00;33.20;;;;;;5014612;28;20495;-53
2022/01/19 02:01:28;;;;;;;4.30;3.08;;;22.00;33.30;;;;;;5015682;28;20030;-55
2022/01/19 02:03:55;;;;;;;3.83;2.67;;;22.00;33.20;;;;;;5013315;28;20052;-56
2022/01/19 02:06:31;;;;;;;5.60;3.20;;;22.00;33.20;;;;;;5014390;28;20029;-50
2022/01/19 02:09:17;;;;;;;5.57;3.50;;;22.00;33.20;;;;;;5013609;28;20130;-58
2022/01/19 02:23:03;;;;;;;3.70;3.00;;;22.00;33.20;;;;;;5014162;28;20044;-53
2022/01/19 02:25:35;;;;;;;3.15;2.67;;;21.90;33.10;;;;;;5011181;28;20113;-52
2022/01/19 02:41:45;;;;;;;3.60;2.40;;;21.90;33.10;;;;;;5011414;28;20076;-53
2022/01/19 02:44:16;;;;;;;2.67;2.03;;;21.90;33.10;;;;;;5014531;28;20049;-51
2022/01/19 02:49:10;;;;;;;3.47;2.63;;;21.90;33.10;;;;;;5014925;28;20041;-53
2022/01/19 02:49:38;;;;;;;3.30;2.42;;;21.80;33.00;;;;;;5014392;28;20045;-52
2022/01/19 02:52:04;;;;;;;3.05;2.35;;;21.80;33.00;;;;;;5013127;28;20042;-52
2022/01/19 02:54:30;;;;;;;2.63;2.00;;;21.80;33.00;;;;;;5010805;28;20440;-50
2022/01/19 02:57:00;;;;;;;2.95;2.30;;;21.80;33.00;;;;;;5018326;28;20025;-52
2022/01/19 02:59:34;;;;;;;3.08;2.28;;;21.80;33.00;;;;;;5053637;28;20021;-56
2022/01/19 03:10:13;;;;;;;3.75;2.45;;;21.80;32.90;;;;;;5052460;28;20021;-54
2022/01/19 03:12:39;;;;;;;3.75;2.50;;;21.80;32.90;;;;;;5035906;28;20043;-52
2022/01/19 03:15:10;;;;;;;2.58;2.10;;;21.80;32.90;;;;;;5035301;28;20025;-54
2022/01/19 03:17:37;;;;;;;3.20;2.47;;;21.80;32.80;;;;;;5036082;28;20033;-56
2022/01/19 03:20:04;;;;;;;3.17;2.17;;;21.80;32.80;;;;;;5035512;28;20024;-56
2022/01/19 03:22:37;;;;;;;3.78;2.75;;;21.80;32.80;;;;;;5054104;28;20460;-52
2022/01/19 03:25:10;;;;;;;3.15;2.25;;;21.80;32.80;;;;;;5034024;28;20021;-54
2022/01/19 03:27:36;;;;;;;3.33;2.40;;;21.80;32.80;;;;;;5052532;28;20142;-52
2022/01/19 03:30:04;;;;;;;3.17;2.38;;;21.70;32.70;;;;;;5034741;28;20436;-55
2022/01/19 03:32:31;;;;;;;5.47;3.00;;;21.70;32.70;;;;;;5018978;28;20045;-55
2022/01/19 03:34:57;;;;;;;2.95;2.13;;;21.80;32.80;;;;;;5033444;28;20017;-53
2022/01/19 03:37:23;;;;;;;4.00;2.50;;;21.70;33.40;;;;;;5035395;28;20109;-52
2022/01/19 03:39:48;;;;;;;2.95;2.15;;;21.80;32.80;;;;;;5052847;28;20028;-52
2022/01/19 03:42:14;;;;;;;3.92;2.47;;;21.70;32.70;;;;;;5052240;28;20104;-52
2022/01/19 03:44:40;;;;;;;3.75;2.20;;;21.70;32.70;;;;;;5035235;28;20028;-53
2022/01/19 03:47:07;;;;;;;4.68;2.35;;;21.80;32.70;;;;;;5035579;28;20438;-53
2022/01/19 03:49:34;;;;;;;4.15;2.70;;;21.80;32.60;;;;;;5035755;28;20025;-51
2022/01/19 03:52:03;;;;;;;2.70;2.17;;;21.70;32.50;;;;;;5035091;28;20150;-51
2022/01/19 03:54:38;;;;;;;3.00;2.40;;;21.80;32.60;;;;;;5035078;28;20067;-56
2022/01/19 03:57:04;;;;;;;3.35;2.20;;;21.80;32.60;;;;;;5033722;28;20049;-54
2022/01/19 03:59:31;;;;;;;3.05;2.10;;;21.70;32.50;;;;;;5034253;28;20151;-50
2022/01/19 04:01:58;;;;;;;3.83;2.20;;;21.70;32.50;;;;;;5034813;28;20032;-52
2022/01/19 04:09:34;;;;;;;3.80;2.22;;;21.70;32.50;;;;;;5035323;28;20059;-54
2022/01/19 04:12:01;;;;;;;3.10;2.05;;;21.70;32.50;;;;;;5035187;28;20090;-52
2022/01/19 04:14:28;;;;;;;3.25;2.08;;;21.70;32.50;;;;;;5027169;28;20018;-57
2022/01/19 04:16:58;;;;;;;3.63;2.10;;;21.70;32.40;;;;;;5026030;28;20021;-54
2022/01/19 04:22:05;;;;;;;3.45;2.25;;;21.70;32.40;;;;;;5032668;28;20459;-50
2022/01/19 04:24:34;;;;;;;3.88;2.35;;;21.70;32.30;;;;;;5031177;28;20533;-51
2022/01/19 04:29:48;;;;;;;3.75;2.13;;;21.60;32.30;;;;;;5041411;28;20075;-52
2022/01/19 04:32:18;;;;;;;2.30;1.90;;;21.60;32.20;;;;;;5039252;28;20060;-51
2022/01/19 04:34:47;;;;;;;3.75;2.20;;;21.60;32.20;;;;;;5041113;28;20036;-52
2022/01/19 04:45:53;;;;;;;3.05;2.10;;;21.60;32.10;;;;;;5039331;28;20110;-54
2022/01/19 05:01:44;;;;;;;2.47;1.80;;;21.50;32.00;;;;;;5042542;28;20110;-51
2022/01/19 05:04:32;;;;;;;3.28;1.85;;;21.50;32.00;;;;;;5061243;28;20021;-53
2022/01/19 05:10:01;;;;;;;1.90;1.58;;;21.50;32.00;;;;;;5043799;28;20045;-53
2022/01/19 05:15:13;;;;;;;2.10;1.75;;;21.50;32.00;;;;;;5042814;28;20474;-54
2022/01/19 05:17:38;;;;;;;2.00;1.73;;;21.40;31.90;;;;;;5060505;28;20017;-54
2022/01/19 05:20:09;;;;;;;3.25;1.85;;;21.40;31.90;;;;;;5043021;28;20419;-54
2022/01/19 05:22:35;;;;;;;3.72;1.70;;;21.40;31.80;;;;;;5042129;28;20066;-52
2022/01/19 05:25:08;;;;;;;2.50;1.92;;;21.40;31.90;;;;;;5042370;28;20024;-51
2022/01/19 05:27:57;;;;;;;3.08;1.90;;;21.50;31.90;;;;;;5042953;28;20126;-54
2022/01/19 05:30:23;;;;;;;2.58;2.03;;;21.40;31.90;;;;;;5038519;28;20348;-52
2022/01/19 05:32:49;;;;;;;2.70;1.88;;;21.40;31.80;;;;;;5039578;28;20127;-52
2022/01/19 05:35:15;;;;;;;2.17;1.55;;;21.40;31.80;;;;;;5039153;28;20029;-54
2022/01/19 05:37:46;;;;;;;2.67;1.67;;;21.40;31.80;;;;;;5038929;28;20020;-52
2022/01/19 05:40:30;;;;;;;2.70;2.08;;;21.40;31.80;;;;;;5057404;28;20039;-56
2022/01/19 05:42:57;;;;;;;2.22;1.85;;;21.40;31.90;;;;;;5039108;28;20025;-56
2022/01/19 05:45:24;;;;;;;1.83;1.58;;;21.40;31.90;;;;;;5039248;28;20078;-53
2022/01/19 05:47:51;;;;;;;3.35;2.15;;;21.40;31.80;;;;;;5039677;28;20017;-56
2022/01/19 05:50:17;;;;;;;1.98;1.50;;;21.40;31.80;;;;;;5038766;28;20094;-54
2022/01/19 05:52:51;;;;;;;2.67;1.73;;;21.40;31.80;;;;;;5019658;28;20437;-57
2022/01/19 05:55:16;;;;;;;2.40;1.73;;;21.40;31.80;;;;;;5053378;28;20045;-51
2022/01/19 05:57:43;;;;;;;2.17;1.70;;;21.40;31.80;;;;;;5039141;28;20056;-54
2022/01/19 06:00:10;;;;;;;2.75;1.77;;;21.40;31.80;;;;;;5037513;28;20017;-51
2022/01/19 06:02:49;;;;;;;1.80;1.33;;;21.40;31.80;;;;;;5057068;28;20033;-54
2022/01/19 06:05:16;;;;;;;2.42;1.85;;;21.40;31.80;;;;;;5038559;28;20397;-53
2022/01/19 06:08:11;;;;;;;1.58;1.42;;;21.40;31.80;;;;;;5039481;28;20035;-55
2022/01/19 06:10:42;;;;;;;2.42;1.88;;;21.40;31.80;;;;;;5055903;28;20033;-54
2022/01/19 06:13:09;;;;;;;2.22;1.95;;;21.40;31.80;;;;;;5056931;28;20044;-57
2022/01/19 06:15:35;;;;;;;2.17;1.80;;;21.40;31.80;;;;;;5038291;28;20029;-54
2022/01/19 06:18:02;;;;;;;1.83;1.50;;;21.40;31.80;;;;;;5037412;28;20101;-54
2022/01/19 06:20:29;;;;;;;2.50;2.13;;;21.40;31.80;;;;;;5038819;28;20061;-56
2022/01/19 06:22:55;;;;;;;2.33;1.88;;;21.30;31.70;;;;;;5021558;28;20048;-51
2022/01/19 06:25:21;;;;;;;2.85;2.00;;;21.40;31.80;;;;;;5038498;28;20511;-51
2022/01/19 06:27:47;;;;;;;2.50;1.92;;;21.30;31.70;;;;;;5022229;28;20060;-56
2022/01/19 06:30:13;;;;;;;2.65;1.95;;;21.30;31.70;;;;;;5037710;28;20053;-52
2022/01/19 06:32:40;;;;;;;3.42;2.17;;;21.30;31.70;;;;;;5038539;28;20042;-51
2022/01/19 06:35:07;;;;;;;3.88;2.30;;;21.30;31.70;;;;;;5037564;28;20076;-53
2022/01/19 06:37:49;;;;;;;3.65;2.47;;;21.30;31.70;;;;;;5050042;28;20531;-48
2022/01/19 06:40:25;;;;;;;2.67;1.98;;;21.30;31.70;;;;;;5038007;28;20032;-52
2022/01/19 06:42:53;;;;;;;3.38;2.78;;;21.30;31.70;;;;;;5038284;28;20078;-51
2022/01/19 06:45:19;;;;;;;4.50;3.13;;;21.30;31.70;;;;;;5037610;28;20036;-54
2022/01/19 06:47:45;;;;;;;4.72;3.28;;;21.30;31.70;;;;;;5056600;28;20033;-51
2022/01/19 06:50:12;;;;;;;2.83;2.50;;;21.30;31.70;;;;;;5037944;28;20116;-56
2022/01/19 06:52:41;;;;;;;4.55;3.38;;;21.30;31.70;;;;;;5038540;28;20032;-51
2022/01/19 06:55:08;;;;;;;4.38;3.03;;;21.30;31.70;;;;;;5036949;28;20024;-53
2022/01/19 06:57:34;;;;;;;4.53;3.65;;;21.30;31.70;;;;;;5037872;28;20040;-55
2022/01/19 07:00:21;;;;;;;4.85;3.88;;;21.30;32.00;;;;;;5037870;28;20017;-51
2022/01/19 07:03:05;;;;;;;4.70;3.60;;;21.30;31.70;;;;;;5037678;28;20443;-52
2022/01/19 07:05:45;;;;;;;5.10;3.50;;;21.30;31.70;;;;;;5035352;28;20335;-51
2022/01/19 07:08:29;;;;;;;5.40;3.85;;;21.20;31.70;;;;;;5048944;28;20044;-55
2022/01/19 07:10:55;;;;;;;5.25;3.58;;;21.30;31.70;;;;;;5053507;28;20033;-54
2022/01/19 07:13:21;;;;;;;6.05;3.85;;;21.20;31.70;;;;;;5037641;28;20048;-56
2022/01/19 07:15:48;;;;;;;5.20;3.80;;;21.20;31.70;;;;;;5037655;28;20020;-55
2022/01/19 07:18:14;;;;;;;4.97;3.42;;;21.20;31.70;;;;;;5036946;28;20087;-55
2022/01/19 07:20:40;;;;;;;5.47;4.13;;;21.20;31.70;;;;;;5036989;28;20029;-54
2022/01/19 07:23:06;;;;;;;5.68;3.63;;;21.20;31.70;;;;;;5037514;28;20432;-55
2022/01/19 07:25:33;;;;;;;6.32;3.70;;;21.20;31.70;;;;;;5036489;28;20036;-54
2022/01/19 07:27:59;;;;;;;4.40;3.38;;;21.20;31.70;;;;;;5037839;28;20025;-52
2022/01/19 07:30:28;;;;;;;5.00;3.70;;;21.20;31.70;;;;;;5035611;28;20079;-54
2022/01/19 07:32:54;;;;;;;4.72;3.72;;;21.20;31.70;;;;;;5037825;28;20029;-56
2022/01/19 07:35:21;;;;;;;5.28;3.63;;;21.20;31.70;;;;;;5036151;28;20029;-51
2022/01/19 07:37:50;;;;;;;4.63;3.90;;;21.20;31.70;;;;;;5036640;28;20028;-51
2022/01/19 07:40:16;;;;;;;5.30;3.80;;;21.20;31.70;;;;;;5036025;28;20036;-52
2022/01/19 07:42:43;;;;;;;5.07;3.83;;;21.20;31.70;;;;;;5036611;28;20037;-51
2022/01/19 07:45:32;;;;;;;5.22;3.83;;;21.20;31.70;;;;;;5049537;28;20115;-53
2022/01/19 07:48:17;;;;;;;4.05;3.25;;;21.20;31.70;;;;;;5053008;28;20055;-53
2022/01/19 07:51:05;;;;;;;5.50;3.20;;;21.20;31.80;;;;;;5024225;28;20039;-58
2022/01/19 07:53:57;;;;;;;4.68;3.50;;;21.20;32.00;;;;;;5019114;28;20069;-54
2022/01/19 07:56:28;;;;;;;4.93;3.45;;;21.20;32.20;;;;;;5052078;28;20033;-53
2022/01/19 07:59:11;;;;;;;3.88;3.20;;;21.30;32.30;;;;;;5036912;28;20391;-56
2022/01/19 08:01:54;;;;;;;5.45;3.63;;;21.30;32.30;;;;;;5034128;28;20021;-56
2022/01/19 08:04:45;;;;;;;4.03;3.15;;;21.30;32.10;;;;;;5037563;28;20365;-52
2022/01/19 08:07:14;;;;;;;4.95;3.47;;;21.30;32.00;;;;;;5036772;28;20024;-52
2022/01/19 08:09:40;;;;;;;6.38;3.92;;;21.40;32.00;;;;;;5054079;28;20393;-52
2022/01/19 08:12:08;;;;;;;4.05;3.47;;;21.40;31.80;;;;;;5036260;28;20060;-50
2022/01/19 08:14:39;;;;;;;5.63;3.47;;;21.40;31.80;;;;;;5036863;28;20021;-50
2022/01/19 08:17:05;;;;;;;4.70;3.50;;;21.40;31.70;;;;;;5016752;28;20437;-52
2022/01/19 08:19:34;;;;;;;4.57;3.47;;;21.40;31.70;;;;;;5032494;28;20021;-57
2022/01/19 08:22:01;;;;;;;4.65;3.75;;;21.40;31.60;;;;;;5036548;28;20035;-51
2022/01/19 08:24:28;;;;;;;5.75;4.00;;;21.50;31.60;;;;;;5037001;28;20340;-55
2022/01/19 08:26:55;;;;;;;5.82;3.88;;;21.40;31.50;;;;;;5036490;28;20017;-54
2022/01/19 08:29:25;;;;;;;5.47;3.92;;;21.50;31.50;;;;;;5035997;28;20059;-56
2022/01/19 08:31:55;;;;;;;4.50;3.67;;;21.50;31.50;;;;;;5035909;28;20076;-55
2022/01/19 08:34:44;;;;;;;5.07;3.58;;;21.50;31.40;;;;;;5032324;28;20037;-56
2022/01/19 08:37:25;;;;;;;4.75;3.38;;;21.50;31.40;;;;;;5050941;28;20032;-52
2022/01/19 08:39:59;;;;;;;5.75;4.05;;;21.50;31.40;;;;;;5036082;28;20035;-58
2022/01/19 08:42:26;;;;;;;4.78;3.97;;;21.50;31.50;;;;;;5036251;28;20044;-53
2022/01/19 08:44:53;;;;;;;6.20;4.30;;;21.50;31.60;;;;;;5036678;28;20029;-55
2022/01/19 08:47:22;;;;;;;5.32;4.00;;;21.40;31.70;;;;;;5036506;28;20025;-49
2022/01/19 08:50:09;;;;;;;5.30;4.22;;;21.40;31.90;;;;;;5035873;28;20036;-54
2022/01/19 08:52:55;;;;;;;6.13;4.00;;;21.40;32.10;;;;;;5051960;28;20040;-51
2022/01/19 08:55:39;;;;;;;6.35;4.28;;;21.40;32.10;;;;;;5036396;28;20027;-52
2022/01/19 08:58:06;;;;;;;6.72;4.32;;;21.40;32.10;;;;;;5052866;28;20123;-56
2022/01/19 09:00:33;;;;;;;5.30;4.10;;;21.50;32.10;;;;;;5053709;28;20025;-48
2022/01/19 09:02:59;;;;;;;5.30;3.85;;;21.60;32.10;;;;;;5052589;28;20064;-54
2022/01/19 09:05:25;;;;;;;6.45;4.30;;;21.70;32.00;;;;;;5056840;28;20049;-56
2022/01/19 09:07:51;;;;;;;4.80;3.80;;;21.70;31.90;;;;;;5063804;28;20024;-51
2022/01/19 09:10:17;;;;;;;4.97;4.07;;;21.80;31.80;;;;;;5059520;28;20036;-55
2022/01/19 09:12:44;;;;;;;5.10;3.72;;;21.90;31.80;;;;;;5057913;28;20033;-51
2022/01/19 09:15:10;;;;;;;4.38;3.72;;;22.00;31.70;;;;;;5057653;28;20031;-52
2022/01/19 09:17:36;;;;;;;3.75;3.00;;;22.10;31.60;;;;;;5057735;28;20137;-54
2022/01/19 09:20:05;;;;;;;5.68;3.60;;;22.10;31.50;;;;;;5057020;28;20120;-48
2022/01/19 09:22:31;;;;;;;4.47;3.58;;;22.20;31.40;;;;;;5054635;28;20033;-49
2022/01/19 09:24:57;;;;;;;5.32;3.60;;;22.30;31.30;;;;;;5057020;28;20052;-54
2022/01/19 09:27:23;;;;;;;4.60;3.72;;;22.40;31.20;;;;;;5056845;28;20056;-56
2022/01/19 09:29:49;;;;;;;5.63;3.97;;;22.50;31.20;;;;;;5057314;28;20036;-56
2022/01/19 09:32:15;;;;;;;4.53;3.65;;;22.50;31.10;;;;;;5057270;28;20037;-55
2022/01/19 09:34:47;;;;;;;4.15;3.20;;;22.60;31.10;;;;;;5056897;28;20112;-53
2022/01/19 09:37:13;;;;;;;4.50;3.42;;;22.60;30.90;;;;;;5056213;28;20033;-53
2022/01/19 09:39:39;;;;;;;4.35;3.38;;;22.70;30.90;;;;;;5057844;28;20317;-49
2022/01/19 09:42:06;;;;;;;4.60;3.55;;;22.80;30.90;;;;;;5057098;28;20063;-50
2022/01/19 09:44:32;;;;;;;4.85;3.30;;;22.90;30.90;;;;;;5057272;28;20017;-54
2022/01/19 09:46:59;;;;;;;4.25;3.20;;;23.00;30.80;;;;;;5056838;28;20432;-49
2022/01/19 09:49:25;;;;;;;3.45;3.05;;;23.00;30.70;;;;;;5056904;28;20027;-57
2022/01/19 09:51:52;;;;;;;4.03;3.28;;;23.10;30.60;;;;;;5056948;28;20119;-49
2022/01/19 09:54:21;;;;;;;3.95;3.25;;;23.20;30.60;;;;;;5056693;28;20029;-52
2022/01/19 09:56:48;;;;;;;3.33;3.03;;;23.20;30.50;;;;;;5054203;28;20040;-52
2022/01/19 09:59:16;;;;;;;4.13;3.08;;;23.30;30.40;;;;;;5037452;28;20034;-52
2022/01/19 10:02:09;;;;;;;3.58;2.88;;;23.40;30.40;;;;;;5050267;28;20025;-49
2022/01/19 10:04:42;;;;;;;3.83;2.90;;;23.40;30.20;;;;;;5052574;28;20037;-53
2022/01/19 10:07:21;;;;;;;3.70;2.80;;;23.50;30.20;;;;;;5056514;28;20028;-48
2022/01/19 10:09:47;;;;;;;3.05;2.65;;;23.50;30.10;;;;;;5056563;28;20017;-52
2022/01/19 10:17:53;;;;;;;4.10;2.70;;;23.70;30.00;;;;;;4986392;28;20038;-50
2022/01/19 10:20:21;;;;;;;3.10;2.58;;;23.70;30.00;;;;;;5049071;28;20025;-54
2022/01/19 10:22:47;;;;;;;2.60;2.10;;;23.80;30.00;;;;;;5056325;28;20055;-54
2022/01/19 10:25:13;;;;;;;3.38;2.50;;;23.80;29.90;;;;;;5056850;28;20033;-50
2022/01/19 10:27:45;;;;;;;3.47;2.47;;;23.80;29.80;;;;;;5056018;28;20108;-54
2022/01/19 10:30:14;;;;;;;3.38;2.60;;;23.90;29.80;;;;;;5056153;28;20033;-51
2022/01/19 10:32:50;;;;;;;2.42;2.20;;;23.90;29.80;;;;;;5056110;28;20345;-51
2022/01/19 10:35:31;;;;;;;2.45;2.25;;;24.00;29.80;;;;;;5055136;28;20116;-49
2022/01/19 10:38:11;;;;;;;3.15;2.55;;;24.00;29.80;;;;;;5050648;28;20025;-54
2022/01/19 10:40:39;;;;;;;3.38;2.33;;;24.00;29.90;;;;;;5054394;28;20025;-54
2022/01/19 10:43:28;;;;;;;2.75;1.95;;;24.00;30.10;;;;;;5054743;28;20021;-50
2022/01/19 10:45:55;;;;;;;4.18;1.98;;;24.10;30.30;;;;;;5056077;28;20067;-53
2022/01/19 10:48:42;;;;;;;2.75;2.05;;;24.10;30.50;;;;;;5037890;28;20036;-57
2022/01/19 10:51:11;;;;;;;3.92;2.20;;;24.10;30.50;;;;;;5055501;28;20024;-57
2022/01/19 10:53:38;;;;;;;2.15;1.75;;;24.10;30.60;;;;;;5055225;28;20037;-57
2022/01/19 10:56:05;;;;;;;2.08;1.77;;;24.10;30.60;;;;;;5055194;28;20052;-54
2022/01/19 10:58:51;;;;;;;1.98;1.60;;;24.10;30.60;;;;;;5055586;28;20041;-57
2022/01/19 11:01:48;;;;;;;3.33;1.70;;;24.10;30.60;;;;;;5055879;28;20025;-53
2022/01/19 11:04:30;;;;;;;1.92;1.73;;;24.00;30.50;;;;;;5054442;28;20016;-57
2022/01/19 11:07:08;;;;;;;4.75;1.95;;;24.00;30.60;;;;;;5045159;28;20028;-53
2022/01/19 11:09:44;;;;;;;2.33;1.60;;;24.00;30.60;;;;;;5054002;28;20049;-50
2022/01/19 11:12:19;;;;;;;3.30;2.20;;;23.90;30.50;;;;;;5053597;28;20029;-55
2022/01/19 11:14:46;;;;;;;2.28;1.88;;;23.90;30.40;;;;;;5054620;28;20017;-55
2022/01/19 11:17:12;;;;;;;2.53;2.08;;;23.80;30.30;;;;;;5053595;28;20416;-55
2022/01/19 11:19:43;;;;;;;2.17;1.70;;;23.80;30.20;;;;;;5055705;28;20028;-54
2022/01/19 11:22:18;;;;;;;1.60;1.50;;;23.80;30.30;;;;;;5054526;28;20020;-56
2022/01/19 11:25:14;;;;;;;1.88;1.70;;;23.70;30.40;;;;;;5055685;28;20028;-52
2022/01/19 11:27:51;;;;;;;1.85;1.55;;;23.70;30.40;;;;;;5051113;28;20033;-49
2022/01/19 11:30:31;;;;;;;1.83;1.55;;;23.70;30.60;;;;;;5052431;28;20037;-54
2022/01/19 11:33:26;;;;;;;2.08;1.67;;;23.70;30.60;;;;;;5052887;28;20047;-52
2022/01/19 11:35:56;;;;;;;2.78;1.70;;;23.80;30.60;;;;;;5033975;28;20519;-57
2022/01/19 11:38:45;;;;;;;2.40;1.52;;;23.80;30.70;;;;;;5054404;28;20027;-59
2022/01/19 11:41:11;;;;;;;1.85;1.42;;;23.90;30.80;;;;;;5052164;28;20040;-46
2022/01/19 11:43:39;;;;;;;2.22;1.92;;;23.90;30.80;;;;;;5051506;28;20020;-47
2022/01/19 11:46:25;;;;;;;4.53;2.10;;;24.00;30.80;;;;;;5053228;28;20055;-53
2022/01/19 11:48:51;;;;;;;2.30;2.03;;;24.00;30.80;;;;;;5051827;28;20368;-51
2022/01/19 11:51:38;;;;;;;4.40;2.80;;;24.00;30.80;;;;;;5051704;28;20047;-48
2022/01/19 11:54:14;;;;;;;4.57;2.50;;;24.00;30.70;;;;;;5052942;28;20037;-50
2022/01/19 11:56:59;;;;;;;3.10;2.28;;;24.10;30.80;;;;;;5050736;28;20036;-53
2022/01/19 11:59:36;;;;;;;2.92;2.50;;;24.10;30.90;;;;;;5051196;28;20040;-45
2022/01/19 12:02:21;;;;;;;3.33;2.33;;;24.10;31.00;;;;;;5053445;28;20032;-47
2022/01/19 12:04:50;;;;;;;;;;;24.20;31.20;;;;;;5052693;28;20112;-49
2022/01/19 12:07:36;;;;;;;3.33;2.45;;;24.10;31.20;;;;;;5051714;28;20003;-50
2022/01/19 12:10:07;;;;;;;4.57;2.95;;;24.20;31.30;;;;;;5047881;28;20021;-49
2022/01/19 12:12:39;;;;;;;5.20;2.92;;;24.20;31.40;;;;;;5052569;28;20033;-48
2022/01/19 12:15:08;;;;;;;4.05;2.67;;;24.30;31.40;;;;;;5052813;28;20039;-52
2022/01/19 12:18:07;;;;;;;4.63;2.72;;;24.30;31.40;;;;;;5047110;28;20098;-46
2022/01/19 12:20:50;;;;;;;4.85;2.80;;;24.30;31.40;;;;;;5048011;28;20358;-57
2022/01/19 12:23:30;;;;;;;5.47;2.53;;;24.30;31.40;;;;;;5050279;28;20029;-56
2022/01/19 12:25:58;;;;;;;5.97;2.72;;;24.40;31.30;;;;;;5031819;28;20025;-54
2022/01/19 12:28:42;;;;;;;3.85;2.30;;;24.30;31.30;;;;;;5046837;28;20024;-54
2022/01/19 12:31:23;;;;;;;;;;;24.40;31.10;;;;;;5048499;28;20106;-55
2022/01/19 12:34:05;;;;;;;3.78;2.50;;;24.30;31.20;;;;;;5052245;28;20221;-53
2022/01/19 12:36:42;;;;;;;3.58;2.40;;;24.30;31.10;;;;;;5043437;28;20444;-48
2022/01/19 12:39:27;;;;;;;5.32;2.53;;;24.30;31.00;;;;;;5056523;28;20021;-49
2022/01/19 12:41:58;;;;;;;3.65;2.38;;;24.30;30.90;;;;;;5068945;28;20032;-49
2022/01/19 12:44:50;;;;;;;3.75;2.35;;;24.30;31.00;;;;;;5057757;28;20021;-57
2022/01/19 12:47:28;;;;;;;3.63;2.45;;;24.30;30.90;;;;;;5057606;28;20013;-48
2022/01/19 12:49:58;;;;;;;3.28;2.60;;;24.30;30.90;;;;;;5058134;28;20035;-52
2022/01/19 12:52:30;;;;;;;4.38;2.40;;;24.30;30.90;;;;;;5057731;28;20028;-46
2022/01/19 12:55:08;;;;;;;5.93;3.00;;;24.30;30.90;;;;;;5056777;28;20021;-54
2022/01/19 12:57:35;;;;;;;3.35;2.42;;;24.20;30.80;;;;;;5052187;28;20037;-55
2022/01/19 13:00:05;;;;;;;3.92;2.45;;;24.20;30.80;;;;;;5053617;28;20052;-53
2022/01/19 13:02:30;;;;;;;2.72;2.20;;;24.20;30.80;;;;;;5058104;28;20051;-50
2022/01/19 13:05:09;;;;;;;3.15;2.05;;;24.20;30.70;;;;;;5057732;28;20107;-53
2022/01/19 13:07:42;;;;;;;3.03;2.33;;;24.20;30.60;;;;;;5057798;28;20055;-53
2022/01/19 13:12:54;;;;;;;3.90;2.15;;;24.20;30.60;;;;;;5056676;28;20129;-49
2022/01/19 13:15:22;;;;;;;6.35;2.25;;;24.10;30.60;;;;;;5057294;28;20040;-46
2022/01/19 13:17:53;;;;;;;2.67;1.90;;;24.10;30.60;;;;;;5056434;28;20036;-52
2022/01/19 13:20:23;;;;;;;5.85;2.00;;;24.10;30.60;;;;;;5056430;28;20040;-46
2022/01/19 13:22:52;;;;;;;2.20;1.63;;;24.10;30.60;;;;;;5056867;28;20025;-47
2022/01/19 13:25:23;;;;;;;4.13;1.63;;;24.00;30.50;;;;;;5050184;28;20025;-48
2022/01/19 13:27:50;;;;;;;3.10;2.00;;;24.00;30.50;;;;;;5048658;28;20119;-53
2022/01/19 13:30:16;;;;;;;3.33;2.03;;;24.00;30.50;;;;;;5057381;28;20032;-51
2022/01/19 13:32:43;;;;;;;2.60;1.90;;;24.00;30.60;;;;;;5057379;28;20044;-49
2022/01/19 13:35:11;;;;;;;3.08;2.17;;;23.90;30.50;;;;;;5057465;28;20032;-49
2022/01/19 13:37:45;;;;;;;3.08;1.95;;;23.90;30.40;;;;;;5057276;28;20029;-54
2022/01/19 13:40:19;;;;;;;3.53;2.13;;;23.90;30.50;;;;;;5056869;28;20029;-59
2022/01/19 13:42:50;;;;;;;2.03;1.75;;;23.90;30.40;;;;;;5056281;28;20040;-47
2022/01/19 13:45:37;;;;;;;3.60;2.05;;;23.90;30.50;;;;;;5056622;28;20086;-53
2022/01/19 13:50:42;;;;;;;2.35;1.70;;;23.90;30.50;;;;;;5054893;28;20076;-52
2022/01/19 13:53:09;;;;;;;3.35;1.88;;;23.90;30.50;;;;;;5056636;28;20040;-53
2022/01/19 13:55:36;;;;;;;2.80;1.83;;;23.90;30.80;;;;;;5055995;28;20451;-54
2022/01/19 13:58:14;;;;;;;2.63;1.70;;;24.00;30.70;;;;;;5043953;28;20052;-51
2022/01/19 14:00:57;;;;;;;3.92;1.77;;;24.00;30.70;;;;;;5045320;28;20033;-51
2022/01/19 14:03:25;;;;;;;3.85;1.70;;;24.00;30.70;;;;;;5055070;28;20463;-50
2022/01/19 14:05:55;;;;;;;2.92;1.88;;;24.00;30.70;;;;;;5054838;28;20104;-52
2022/01/19 14:08:31;;;;;;;2.30;1.90;;;24.00;30.70;;;;;;5051791;28;20492;-53
2022/01/19 14:10:57;;;;;;;2.97;1.90;;;24.00;30.60;;;;;;5036765;28;20038;-53
2022/01/19 14:13:35;;;;;;;2.38;1.85;;;24.00;30.70;;;;;;5037430;28;20124;-53
2022/01/19 14:16:24;;;;;;;2.67;2.05;;;24.10;30.60;;;;;;5049556;28;20525;-56
2022/01/19 14:19:12;;;;;;;2.25;1.77;;;24.10;30.50;;;;;;5052707;28;20314;-50
2022/01/19 14:22:11;;;;;;;4.20;1.90;;;24.10;30.50;;;;;;5044861;28;20082;-46
2022/01/19 14:24:40;;;;;;;3.38;2.20;;;24.20;30.60;;;;;;5035283;28;20438;-55
2022/01/19 14:27:07;;;;;;;4.95;3.55;;;24.20;30.60;;;;;;5048944;28;20021;-49
2022/01/19 14:29:33;;;;;;;9.15;6.40;;;24.20;30.60;;;;;;5048199;28;20021;-56
2022/01/19 14:32:00;;;;;;;9.13;7.60;;;24.20;30.70;;;;;;5041790;28;20323;-61
2022/01/19 14:34:39;;;;;;;12.57;9.80;;;24.30;30.90;;;;;;5045371;28;20043;-55